Time;durP1;ratioP1;P1;durP2;ratioP2;P2;SDS_P1;SDS_P2;PMS_P1;PMS_P2;Temp;Humidity;BMP_temperature;BMP_pressure;BME280_temperature;BME280_humidity;BME280_pressure;Samples;Min_cycle;Max_cycle;Signal;HPM_P1;HPM_P2
2022/06/12 00:02:51;;;;;;;8.13;5.00;;;;;;;17.37;64.86;99829.63;8521940;27;20070;-75
2022/06/12 00:06:53;;;;;;;9.80;5.50;;;;;;;17.41;64.86;99830.53;8512256;27;20047;-74
2022/06/12 00:10:56;;;;;;;11.68;5.30;;;;;;;17.50;64.64;99828.53;8517147;27;20244;-74
2022/06/12 00:14:57;;;;;;;9.55;4.30;;;;;;;17.52;64.45;99820.78;8478795;27;20065;-74
2022/06/12 00:18:58;;;;;;;7.20;4.22;;;;;;;17.53;64.37;99822.38;8509625;27;20080;-74
2022/06/12 00:22:59;;;;;;;9.77;4.53;;;;;;;17.47;64.42;99819.06;8503033;27;20058;-74
2022/06/12 00:27:01;;;;;;;7.93;4.57;;;;;;;17.42;64.67;99815.75;8487686;27;20130;-76
2022/06/12 00:31:02;;;;;;;7.95;4.78;;;;;;;17.37;64.79;99808.56;8513688;27;20420;-74
2022/06/12 00:35:03;;;;;;;8.30;5.45;;;;;;;17.37;64.73;99807.78;8477517;27;20050;-74
2022/06/12 00:39:05;;;;;;;10.52;5.00;;;;;;;17.34;64.87;99819.38;8520051;27;20053;-73
2022/06/12 00:43:07;;;;;;;12.52;5.07;;;;;;;17.34;64.91;99808.47;8499950;27;20127;-73
2022/06/12 00:47:12;;;;;;;9.02;5.05;;;;;;;17.26;65.31;99813.66;8493978;27;20043;-74
2022/06/12 00:51:19;;;;;;;13.75;5.43;;;;;;;17.29;65.02;99818.44;8457807;27;20043;-74
2022/06/12 00:55:43;;;;;;;8.70;5.30;;;;;;;17.26;64.73;99797.28;8527188;27;20046;-75
2022/06/12 00:59:50;;;;;;;11.82;5.43;;;;;;;17.19;65.15;99807.13;8507737;27;20060;-74
2022/06/12 01:08:11;;;;;;;10.23;5.50;;;;;;;17.04;65.50;99800.38;8529671;27;20057;-74
2022/06/12 01:12:15;;;;;;;11.13;5.68;;;;;;;16.94;65.71;99800.78;8518938;27;20050;-75
2022/06/12 01:16:18;;;;;;;11.60;5.28;;;;;;;16.91;65.80;99790.53;8506073;27;20074;-74
2022/06/12 01:20:24;;;;;;;12.05;6.35;;;;;;;16.89;65.88;99787.34;8493754;27;20055;-74
2022/06/12 01:24:41;;;;;;;9.18;5.57;;;;;;;16.90;66.29;99794.41;8523419;27;20050;-74
2022/06/12 01:29:00;;;;;;;12.10;5.90;;;;;;;16.91;66.12;99790.53;8518576;27;20055;-74
2022/06/12 01:33:08;;;;;;;10.57;6.00;;;;;;;16.93;66.14;99793.72;8510203;27;20114;-74
2022/06/12 01:37:24;;;;;;;;;;;;;;;16.95;66.00;99786.00;8520784;27;20051;-74
2022/06/12 01:41:28;;;;;;;13.18;6.43;;;;;;;16.96;66.03;99782.16;8516804;27;19971;-74
2022/06/12 01:45:35;;;;;;;12.73;6.07;;;;;;;16.95;66.26;99780.56;8518968;27;20047;-74
2022/06/12 01:49:48;;;;;;;9.57;6.40;;;;;;;16.91;66.63;99779.63;8527084;27;20488;-74
2022/06/12 01:54:04;;;;;;;11.68;6.90;;;;;;;16.85;67.04;99775.50;8529552;27;20054;-73
2022/06/12 01:58:08;;;;;;;15.32;7.20;;;;;;;16.84;67.07;99768.44;8523012;27;20134;-73
2022/06/12 02:02:09;;;;;;;12.90;7.53;;;;;;;16.87;66.77;99778.69;8509205;27;20039;-74
2022/06/12 02:06:37;;;;;;;11.10;7.03;;;;;;;16.88;67.11;99774.81;8508051;27;20138;-74
2022/06/12 02:10:52;;;;;;;14.50;7.27;;;;;;;16.75;68.35;99781.38;8388089;28;20045;-73
2022/06/12 02:15:08;;;;;;;13.43;7.38;;;;;;;16.72;68.46;99771.91;8387963;28;20048;-74
2022/06/12 02:19:14;;;;;;;13.35;8.18;;;;;;;16.75;68.52;99773.19;8370998;28;20076;-74
2022/06/12 02:23:27;;;;;;;11.02;7.30;;;;;;;16.68;69.14;99759.28;8372267;28;20057;-74
2022/06/12 02:27:33;;;;;;;12.20;7.25;;;;;;;16.74;68.73;99764.19;8371022;28;20036;-74
2022/06/12 02:31:41;;;;;;;13.68;7.70;;;;;;;16.75;69.07;99765.00;8385404;28;20481;-74
2022/06/12 02:35:52;;;;;;;10.60;7.20;;;;;;;16.76;68.56;99766.59;8387968;28;20052;-74
2022/06/12 02:40:03;;;;;;;12.05;8.02;;;;;;;16.72;69.11;99776.56;8370167;28;20044;-74
2022/06/12 02:44:12;;;;;;;14.48;8.27;;;;;;;16.70;69.65;99789.75;8387231;28;20541;-73
2022/06/12 02:48:13;;;;;;;14.95;7.55;;;;;;;16.66;69.74;99788.78;8476498;28;20133;-74
2022/06/12 02:52:35;;;;;;;12.32;7.82;;;;;;;16.61;70.16;99778.09;8490563;28;20103;-74
2022/06/12 02:56:59;;;;;;;16.55;7.72;;;;;;;16.55;70.31;99787.59;8491475;27;20051;-73
2022/06/12 03:01:13;;;;;;;10.10;6.95;;;;;;;16.57;70.19;99777.13;8474060;28;20054;-74
2022/06/12 03:05:24;;;;;;;13.25;7.88;;;;;;;16.59;70.31;99788.53;8484644;28;20556;-74
2022/06/12 03:09:25;;;;;;;11.07;7.45;;;;;;;16.61;70.32;99786.28;8486515;27;20043;-75
2022/06/12 03:13:28;;;;;;;12.82;7.47;;;;;;;16.63;70.16;99778.56;8490666;27;20049;-74
2022/06/12 03:17:29;;;;;;;12.02;7.85;;;;;;;16.59;70.62;99788.53;8459227;27;20043;-74
2022/06/12 03:21:45;;;;;;;13.20;7.55;;;;;;;16.60;70.51;99773.78;8523176;27;20042;-74
2022/06/12 03:25:52;;;;;;;14.50;8.13;;;;;;;16.60;70.98;99779.25;8519063;27;20515;-74
2022/06/12 03:30:02;;;;;;;13.05;9.10;;;;;;;16.57;70.95;99774.41;8523162;27;20043;-74
2022/06/12 03:34:10;;;;;;;21.88;9.00;;;;;;;16.58;71.16;99765.09;8527780;27;20038;-74
2022/06/12 03:38:40;;;;;;;13.70;7.90;;;;;;;16.63;71.09;99762.22;8504988;27;20046;-74
2022/06/12 03:42:50;;;;;;;19.27;7.53;;;;;;;16.68;71.09;99772.91;8388804;28;20794;-76
2022/06/12 03:46:53;;;;;;;14.95;7.40;;;;;;;16.75;71.42;99773.19;8382377;28;20089;-75
2022/06/12 03:51:30;;;;;;;13.55;7.72;;;;;;;16.80;71.48;99772.97;8396180;28;20059;-75
2022/06/12 04:00:38;;;;;;;12.23;6.68;;;;;;;16.92;71.88;99781.19;8393891;28;20052;-75
2022/06/12 04:04:41;;;;;;;12.13;6.78;;;;;;;16.92;72.30;99781.19;8273072;28;20069;-74
2022/06/12 04:08:49;;;;;;;15.02;7.28;;;;;;;16.99;72.23;99786.13;8274867;28;20057;-73
2022/06/12 04:12:50;;;;;;;15.60;7.13;;;;;;;17.07;71.88;99777.88;8230076;28;20453;-74
2022/06/12 04:16:53;;;;;;;15.07;7.05;;;;;;;17.16;71.98;99781.31;8235278;28;20047;-74
2022/06/12 04:21:08;;;;;;;10.43;7.10;;;;;;;17.23;71.89;99781.59;8295733;28;20050;-74
2022/06/12 04:25:24;;;;;;;15.15;6.90;;;;;;;17.31;72.25;99777.97;8276869;28;20042;-73
2022/06/12 04:29:28;;;;;;;14.70;7.40;;;;;;;17.40;72.20;99774.31;8293011;28;20061;-74
2022/06/12 04:33:35;;;;;;;15.55;6.63;;;;;;;17.54;71.73;99774.84;8292915;28;20045;-75
2022/06/12 04:37:36;;;;;;;11.80;6.95;;;;;;;17.67;71.09;99773.72;8292916;28;20042;-75
2022/06/12 04:41:37;;;;;;;15.05;7.32;;;;;;;17.84;70.32;99772.72;8378678;28;20051;-75
2022/06/12 04:45:39;;;;;;;18.17;7.68;;;;;;;17.96;70.23;99776.28;8452994;28;20105;-74
2022/06/12 04:49:41;;;;;;;16.48;6.82;;;;;;;18.12;69.74;99785.38;8433183;28;20047;-74
2022/06/12 04:53:43;;;;;;;10.20;5.88;;;;;;;18.24;69.26;99792.00;8453308;28;20122;-75
2022/06/12 04:57:45;;;;;;;14.15;6.05;;;;;;;18.34;69.05;99786.06;8450975;28;20401;-74
2022/06/12 05:01:47;;;;;;;10.48;5.45;;;;;;;18.45;68.63;99781.72;8462727;28;20043;-74
2022/06/12 05:05:49;;;;;;;13.30;6.20;;;;;;;18.55;68.58;99792.22;8442018;28;20035;-74
2022/06/12 05:09:50;;;;;;;15.32;6.20;;;;;;;18.66;68.24;99796.06;8435675;28;20100;-74
2022/06/12 05:13:51;;;;;;;9.65;5.50;;;;;;;18.79;68.06;99794.88;8411078;28;20059;-74
2022/06/12 05:17:53;;;;;;;12.80;5.07;;;;;;;18.91;67.40;99800.31;8446993;28;20047;-75
2022/06/12 05:21:54;;;;;;;14.38;5.15;;;;;;;18.98;67.12;99799.75;8459999;27;20043;-74
2022/06/12 05:25:55;;;;;;;8.48;5.10;;;;;;;19.04;66.58;99803.00;8480600;27;20048;-73
2022/06/12 05:29:56;;;;;;;8.60;4.88;;;;;;;19.04;66.33;99797.53;8482760;27;20043;-75
2022/06/12 05:33:57;;;;;;;10.93;5.07;;;;;;;19.05;66.15;99793.66;8472317;27;20099;-74
2022/06/12 05:38:00;;;;;;;14.27;5.70;;;;;;;19.01;66.40;99798.22;8465938;27;20044;-75
2022/06/12 05:42:01;;;;;;;10.50;5.82;;;;;;;18.97;66.35;99798.94;8450591;27;20047;-74
2022/06/12 05:46:03;;;;;;;11.48;5.40;;;;;;;18.95;66.47;99801.22;8493558;27;20508;-73
2022/06/12 05:50:05;;;;;;;12.30;5.55;;;;;;;18.94;66.43;99794.16;8446678;27;20529;-74
2022/06/12 05:54:07;;;;;;;7.95;5.22;;;;;;;18.99;66.53;99802.09;8477717;27;20101;-74
2022/06/12 05:58:08;;;;;;;12.32;5.70;;;;;;;19.03;66.87;99801.44;8486443;28;20188;-74
2022/06/12 06:02:10;;;;;;;9.13;6.38;;;;;;;19.10;66.57;99810.63;8459433;28;20051;-74
2022/06/12 06:06:16;;;;;;;10.98;5.53;;;;;;;19.19;66.51;99799.53;8478713;28;20047;-74
2022/06/12 06:10:24;;;;;;;13.05;6.18;;;;;;;19.30;66.21;99806.09;8452077;28;20048;-74
2022/06/12 06:14:25;;;;;;;13.25;6.60;;;;;;;19.41;65.54;99807.16;8467061;28;20044;-74
2022/06/12 06:18:26;;;;;;;10.80;5.75;;;;;;;19.54;65.06;99806.00;8461540;28;20139;-74
2022/06/12 06:22:27;;;;;;;13.75;6.40;;;;;;;19.67;64.82;99804.75;8506550;27;20058;-75
2022/06/12 06:26:28;;;;;;;15.85;6.28;;;;;;;19.83;64.51;99813.81;8505828;27;20043;-74
2022/06/12 06:30:30;;;;;;;8.63;5.50;;;;;;;20.02;64.20;99812.31;8512915;27;20122;-74
2022/06/12 06:34:31;;;;;;;12.75;5.43;;;;;;;20.15;63.40;99825.56;8456699;27;20043;-75
2022/06/12 06:38:32;;;;;;;10.07;5.50;;;;;;;20.30;63.06;99826.72;8494813;27;20035;-74
2022/06/12 06:42:34;;;;;;;9.57;5.40;;;;;;;20.50;62.78;99828.41;8509686;27;20584;-75
2022/06/12 06:46:35;;;;;;;11.90;5.80;;;;;;;20.70;62.15;99817.44;8470035;27;20062;-74
2022/06/12 06:50:36;;;;;;;12.20;5.72;;;;;;;20.87;61.65;99828.81;8492697;27;20078;-74
2022/06/12 06:54:37;;;;;;;10.02;5.53;;;;;;;21.05;62.73;99818.19;8509252;27;20467;-73
2022/06/12 06:58:38;;;;;;;9.63;5.55;;;;;;;21.13;61.85;99830.13;8502246;27;20047;-75
2022/06/12 07:02:40;;;;;;;10.40;5.90;;;;;;;21.26;61.50;99815.91;8514169;27;20168;-74
2022/06/12 07:06:41;;;;;;;10.95;5.60;;;;;;;21.34;61.11;99823.16;8524752;27;20053;-75
2022/06/12 07:10:43;;;;;;;10.10;5.20;;;;;;;21.31;60.91;99821.09;8505666;27;20053;-74
2022/06/12 07:14:44;;;;;;;9.10;4.75;;;;;;;21.23;60.09;99819.38;8497674;27;20091;-75
2022/06/12 07:18:47;;;;;;;8.73;4.35;;;;;;;21.37;59.83;99816.91;8514718;27;20397;-75
2022/06/12 07:22:49;;;;;;;9.02;4.80;;;;;;;21.52;59.69;99817.97;8518163;27;20457;-74
2022/06/12 07:26:50;;;;;;;7.95;4.65;;;;;;;21.63;59.68;99816.22;8521544;27;20039;-75
2022/06/12 07:30:52;;;;;;;10.80;4.13;;;;;;;21.77;58.36;99815.69;8534107;27;20492;-75
2022/06/12 07:34:53;;;;;;;8.57;4.07;;;;;;;21.83;57.77;99803.22;8510218;27;20061;-74
2022/06/12 07:38:54;;;;;;;6.20;3.97;;;;;;;21.85;56.43;99796.19;8497374;27;20724;-75
2022/06/12 07:42:55;;;;;;;9.30;4.35;;;;;;;21.89;57.09;99801.75;8533386;27;20070;-75
2022/06/12 07:46:57;;;;;;;7.22;3.60;;;;;;;22.05;56.70;99805.19;8533429;27;20419;-75
2022/06/12 07:50:59;;;;;;;6.40;2.95;;;;;;;22.22;52.77;99812.94;8532655;27;20051;-75
2022/06/12 07:55:00;;;;;;;4.43;3.10;;;;;;;22.33;54.45;99800.13;8490204;27;20458;-75
2022/06/12 07:59:01;;;;;;;6.07;3.22;;;;;;;22.49;51.33;99802.72;8521071;27;20042;-73
2022/06/12 08:03:03;;;;;;;6.07;2.70;;;;;;;22.61;51.07;99798.97;8485934;27;20051;-75
2022/06/12 08:07:04;;;;;;;6.10;3.35;;;;;;;22.73;51.71;99801.53;8519912;27;20053;-74
2022/06/12 08:11:05;;;;;;;6.88;3.88;;;;;;;22.96;51.83;99804.97;8515327;27;20061;-75
2022/06/12 08:15:12;;;;;;;13.77;4.38;;;;;;;23.10;51.48;99799.66;8518469;27;20051;-74
2022/06/12 08:23:39;;;;;;;3.97;2.53;;;;;;;23.26;49.35;99795.88;8518973;27;20065;-75
2022/06/12 08:27:41;;;;;;;6.87;2.50;;;;;;;23.36;48.34;99789.69;8521513;27;20133;-75
2022/06/12 08:31:45;;;;;;;6.20;2.03;;;;;;;23.52;47.91;99782.00;8521442;27;20042;-74
2022/06/12 08:35:47;;;;;;;1.70;1.60;;;;;;;23.63;43.63;99782.91;8509857;27;20070;-74
2022/06/12 08:39:48;;;;;;;3.05;1.35;;;;;;;23.80;40.66;99776.75;8509532;27;20054;-74
2022/06/12 08:44:05;;;;;;;3.05;1.50;;;;;;;24.03;41.80;99770.25;8488364;27;20043;-74
2022/06/12 08:48:31;;;;;;;4.03;1.70;;;;;;;24.25;39.74;99763.72;8507823;27;20502;-74
2022/06/12 08:52:55;;;;;;;3.88;1.45;;;;;;;24.48;39.79;99755.97;8523629;27;20515;-74
2022/06/12 08:57:27;;;;;;;2.47;1.48;;;;;;;24.57;40.29;99753.69;8490370;27;20053;-74
2022/06/12 09:01:29;;;;;;;3.63;2.08;;;;;;;24.71;40.29;99756.50;8364734;28;20048;-74
2022/06/12 09:05:57;;;;;;;3.22;1.65;;;;;;;24.86;40.54;99748.25;8353771;28;20049;-74
2022/06/12 09:10:07;;;;;;;2.10;1.50;;;;;;;24.99;39.76;99746.78;8278570;28;20489;-74
2022/06/12 09:14:07;;;;;;;4.05;1.25;;;;;;;25.14;38.55;99740.09;8269853;28;20045;-75
2022/06/12 09:18:22;;;;;;;2.55;1.20;;;;;;;25.28;38.86;99748.41;8291705;28;20491;-75
2022/06/12 09:22:55;;;;;;;3.92;1.67;;;;;;;25.37;37.61;99739.78;8239809;28;20046;-74
2022/06/12 09:27:02;;;;;;;3.35;1.80;;;;;;;25.51;38.01;99737.81;8287756;28;20061;-75
2022/06/12 09:31:13;;;;;;;4.47;1.92;;;;;;;25.72;37.64;99728.75;8286254;28;20185;-75
2022/06/12 09:36:00;;;;;;;3.92;1.77;;;;;;;25.86;36.15;99733.47;8292404;28;20543;-74
2022/06/12 09:40:03;;;;;;;3.53;1.52;;;;;;;26.03;36.49;99729.91;8355095;28;20065;-74
2022/06/12 09:44:04;;;;;;;2.17;1.60;;;;;;;26.04;35.44;99729.53;8350706;28;20056;-74
2022/06/12 09:48:14;;;;;;;3.28;1.58;;;;;;;25.98;35.34;99730.31;8382912;28;20139;-74
2022/06/12 09:52:32;;;;;;;3.88;1.33;;;;;;;26.02;36.34;99720.03;8382267;28;20067;-75
2022/06/12 09:56:44;;;;;;;7.20;1.48;;;;;;;26.40;36.30;99719.19;8385318;28;20052;-75
2022/06/12 10:01:31;;;;;;;3.15;1.65;;;;;;;26.13;35.78;99720.81;8382325;28;20048;-74
2022/06/12 10:05:40;;;;;;;3.45;1.50;;;;;;;25.48;36.83;99719.25;8271385;28;20708;-74
2022/06/12 10:09:48;;;;;;;2.58;1.75;;;;;;;25.06;38.41;99719.16;8264518;28;20054;-74
2022/06/12 10:13:55;;;;;;;5.40;1.40;;;;;;;25.31;38.56;99714.47;8239075;28;20499;-76
2022/06/12 10:18:19;;;;;;;2.28;1.58;;;;;;;25.87;37.52;99712.94;8350226;28;20386;-76
2022/06/12 10:22:25;;;;;;;3.60;1.50;;;;;;;26.22;35.39;99707.41;8351287;28;20499;-73
2022/06/12 10:26:29;;;;;;;1.83;1.30;;;;;;;25.81;34.82;99703.44;8305736;28;20052;-74
2022/06/12 10:30:37;;;;;;;3.10;1.35;;;;;;;26.04;34.04;99698.28;8339453;28;20072;-74
2022/06/12 10:34:39;;;;;;;1.52;1.20;;;;;;;26.49;35.07;99694.63;8350659;28;20088;-74
2022/06/12 10:38:40;;;;;;;3.92;1.85;;;;;;;26.77;34.18;99698.47;8343668;28;20062;-74
2022/06/12 10:43:15;;;;;;;4.47;1.35;;;;;;;26.77;29.65;99692.94;8479733;27;20055;-74
2022/06/12 10:47:31;;;;;;;2.35;1.30;;;;;;;26.96;31.10;99686.94;8507804;27;20131;-75
2022/06/12 10:51:36;;;;;;;5.10;1.40;;;;;;;27.01;31.06;99689.28;8532239;27;20353;-74
2022/06/12 10:55:44;;;;;;;3.35;1.42;;;;;;;27.11;32.07;99680.13;8505122;27;20035;-74
2022/06/12 10:59:58;;;;;;;2.63;1.40;;;;;;;27.30;31.98;99671.25;8517162;27;20451;-75
2022/06/12 11:04:05;;;;;;;4.32;1.63;;;;;;;27.47;31.14;99669.56;8518060;27;20088;-74
2022/06/12 11:08:25;;;;;;;2.65;1.40;;;;;;;27.64;30.57;99665.09;8527190;27;20130;-74
2022/06/12 11:12:47;;;;;;;4.20;2.10;;;;;;;27.96;30.65;99662.78;8517224;27;20473;-74
2022/06/12 11:17:15;;;;;;;5.50;1.30;;;;;;;28.36;31.30;99657.63;8534787;27;20055;-74
2022/06/12 11:21:34;;;;;;;2.75;1.30;;;;;;;28.28;29.23;99650.59;8534516;27;20058;-75
2022/06/12 11:25:40;;;;;;;3.92;1.60;;;;;;;28.28;30.56;99645.03;8506930;27;20488;-75
2022/06/12 11:30:19;;;;;;;1.30;1.20;;;;;;;28.48;31.09;99648.75;8499610;27;20049;-74
2022/06/12 11:34:47;;;;;;;2.15;1.40;;;;;;;28.45;30.26;99644.00;8514421;27;20043;-74
2022/06/12 11:38:50;;;;;;;2.10;1.30;;;;;;;28.60;31.86;99650.19;8342044;28;20091;-73
2022/06/12 11:42:58;;;;;;;2.88;1.77;;;;;;;28.50;30.25;99640.78;8344531;28;20417;-74
2022/06/12 11:47:06;;;;;;;2.42;1.50;;;;;;;28.63;30.31;99633.44;8299383;28;20045;-75
2022/06/12 11:51:14;;;;;;;2.47;1.27;;;;;;;28.49;30.82;99639.22;8346414;28;20045;-75
2022/06/12 11:55:35;;;;;;;2.00;1.50;;;;;;;28.31;31.11;99644.19;8342494;28;20055;-75
2022/06/12 11:59:58;;;;;;;3.08;1.58;;;;;;;28.23;31.89;99637.94;8278999;28;20410;-74
2022/06/12 12:04:12;;;;;;;3.90;1.58;;;;;;;28.13;31.97;99634.06;8341210;28;20053;-75
2022/06/12 12:08:27;;;;;;;2.28;1.35;;;;;;;28.30;32.70;99634.28;8358363;28;20060;-75
2022/06/12 12:12:33;;;;;;;2.38;1.42;;;;;;;28.45;32.35;99621.78;8340275;28;20053;-74
2022/06/12 12:16:58;;;;;;;4.20;1.58;;;;;;;28.45;32.59;99621.78;8499747;27;20050;-75
2022/06/12 12:21:00;;;;;;;2.03;1.52;;;;;;;28.33;32.13;99608.47;8517737;27;20049;-74
2022/06/12 12:25:29;;;;;;;3.13;1.67;;;;;;;28.20;32.67;99615.75;8521108;27;20063;-75
2022/06/12 12:29:33;;;;;;;2.15;1.40;;;;;;;28.24;31.12;99606.16;8342820;28;20435;-74
2022/06/12 12:33:35;;;;;;;7.47;1.80;;;;;;;28.25;32.50;99595.84;8358431;28;20463;-73
2022/06/12 12:41:56;;;;;;;5.78;1.60;;;;;;;28.50;32.40;99604.66;8331735;28;20462;-74
2022/06/12 12:46:03;;;;;;;9.25;1.50;;;;;;;28.80;31.87;99582.44;8359452;28;20041;-74
2022/06/12 12:50:15;;;;;;;4.97;1.42;;;;;;;29.38;29.92;99589.47;8355655;28;20049;-74
2022/06/12 12:54:18;;;;;;;2.83;1.55;;;;;;;29.74;30.88;99584.03;8345272;28;20087;-74
2022/06/12 12:58:21;;;;;;;3.75;1.55;;;;;;;30.17;28.97;99588.78;8325511;28;20177;-73
2022/06/12 13:02:23;;;;;;;5.38;1.55;;;;;;;30.44;30.27;99569.91;8347877;28;20107;-74
2022/06/12 13:06:33;;;;;;;2.45;1.30;;;;;;;30.31;28.62;99577.34;8458395;27;20138;-73
2022/06/12 13:10:46;;;;;;;2.42;1.58;;;;;;;29.98;28.32;99575.66;8479350;27;20056;-74
2022/06/12 13:15:09;;;;;;;2.95;1.38;;;;;;;30.39;29.65;99573.22;8522947;27;20046;-74
2022/06/12 13:19:25;;;;;;;3.17;1.30;;;;;;;30.54;28.38;99568.91;8512497;27;20134;-74
2022/06/12 13:23:29;;;;;;;2.75;1.27;;;;;;;30.17;27.83;99555.38;8514162;27;20544;-75
2022/06/12 13:27:32;;;;;;;5.72;1.60;;;;;;;29.84;28.42;99553.63;8521556;27;20041;-76
2022/06/12 13:31:33;;;;;;;4.88;1.60;;;;;;;30.15;28.94;99552.22;8513233;27;20392;-75
2022/06/12 13:35:43;;;;;;;1.95;1.30;;;;;;;30.79;29.01;99545.25;8470922;27;20039;-75
2022/06/12 13:39:47;;;;;;;3.22;1.75;;;;;;;31.08;27.65;99545.38;8469582;27;20427;-73
2022/06/12 13:43:48;;;;;;;2.55;1.20;;;;;;;31.35;28.03;99543.88;8526716;27;20858;-75
2022/06/12 13:47:49;;;;;;;3.30;1.50;;;;;;;32.69;25.13;99538.47;8527886;27;20039;-74
2022/06/12 13:51:54;;;;;;;3.53;1.45;;;;;;;33.37;24.12;99531.41;8525522;27;20125;-74
2022/06/12 13:55:58;;;;;;;2.63;1.45;;;;;;;34.18;23.64;99522.09;8524709;27;20536;-75
2022/06/12 13:59:59;;;;;;;2.67;1.40;;;;;;;35.53;24.09;99518.16;8526667;27;20046;-76
2022/06/12 14:04:04;;;;;;;6.10;1.33;;;;;;;36.17;23.35;99509.69;8528591;27;20042;-74
2022/06/12 14:08:05;;;;;;;2.05;1.02;;;;;;;35.07;22.78;99505.31;8520882;27;20051;-74
2022/06/12 14:12:11;;;;;;;1.58;1.20;;;;;;;34.42;25.16;99497.94;8503289;27;20459;-75
2022/06/12 14:16:15;;;;;;;6.07;1.58;;;;;;;34.79;25.47;99487.66;8526400;27;20433;-74
2022/06/12 14:20:16;;;;;;;1.90;1.10;;;;;;;36.40;21.34;99483.66;8475288;27;20054;-74
2022/06/12 14:24:29;;;;;;;3.20;1.20;;;;;;;37.31;20.67;99482.38;8529698;27;20154;-74
2022/06/12 14:28:35;;;;;;;2.25;1.20;;;;;;;37.90;19.95;99477.63;8525035;27;20130;-75
2022/06/12 14:32:46;;;;;;;4.07;1.33;;;;;;;38.82;19.13;99489.34;8483114;27;20137;-76
2022/06/12 14:36:55;;;;;;;3.45;1.30;;;;;;;38.71;18.65;99489.19;8527264;27;20051;-75
2022/06/12 14:40:57;;;;;;;2.65;1.15;;;;;;;39.29;18.41;99481.75;8528428;27;20065;-75
2022/06/12 14:45:00;;;;;;;4.13;1.27;;;;;;;39.31;18.54;99479.22;8489947;27;20070;-76
2022/06/12 14:49:01;;;;;;;2.30;1.13;;;;;;;38.47;19.76;99468.84;8481845;27;20054;-75
2022/06/12 14:53:02;;;;;;;2.70;1.15;;;;;;;37.47;21.10;99478.34;8510121;27;20059;-75
2022/06/12 14:57:06;;;;;;;3.97;1.38;;;;;;;35.54;22.48;99460.75;8473229;27;20385;-74
2022/06/12 15:01:16;;;;;;;0.80;0.80;;;;;;;34.10;23.87;99464.75;8486957;27;20058;-74
2022/06/12 15:05:26;;;;;;;6.05;1.30;;;;;;;33.60;24.53;99455.41;8472442;27;20046;-74
2022/06/12 15:09:29;;;;;;;3.30;1.30;;;;;;;33.19;25.12;99447.31;8512939;27;20042;-74
2022/06/12 15:13:31;;;;;;;3.97;1.15;;;;;;;32.75;25.56;99449.97;8532069;27;20038;-74
2022/06/12 15:17:33;;;;;;;2.53;1.40;;;;;;;32.60;25.87;99440.47;8529558;27;20043;-74
2022/06/12 15:21:37;;;;;;;2.05;1.30;;;;;;;32.16;26.23;99440.25;8531045;27;20058;-75
2022/06/12 15:29:59;;;;;;;3.88;1.20;;;;;;;31.13;28.05;99425.69;8513450;27;20396;-75
2022/06/12 15:34:01;;;;;;;2.55;1.33;;;;;;;30.72;29.30;99422.78;8528340;27;20092;-74
2022/06/12 15:38:05;;;;;;;2.38;1.33;;;;;;;30.12;30.02;99420.19;8533362;27;20488;-74
2022/06/12 15:42:10;;;;;;;4.38;1.17;;;;;;;29.81;30.97;99418.88;8530469;27;20050;-74
2022/06/12 15:46:11;;;;;;;3.38;1.30;;;;;;;29.58;30.76;99408.63;8531691;27;20047;-74
2022/06/12 15:50:13;;;;;;;2.20;1.10;;;;;;;29.43;30.89;99410.13;8531846;27;20051;-75
2022/06/12 15:54:17;;;;;;;4.93;1.40;;;;;;;29.34;31.50;99404.34;8529337;27;20488;-73
2022/06/12 15:58:18;;;;;;;1.83;1.13;;;;;;;29.34;31.08;99396.00;8519704;27;20512;-74
2022/06/12 16:02:21;;;;;;;3.72;1.08;;;;;;;29.09;31.86;99393.66;8502479;27;20070;-74
2022/06/12 16:06:23;;;;;;;3.20;1.20;;;;;;;28.86;31.83;99397.28;8508451;27;20054;-73
2022/06/12 16:10:24;;;;;;;1.92;1.10;;;;;;;28.65;31.57;99386.50;8522952;27;20051;-74
2022/06/12 16:14:26;;;;;;;3.90;1.27;;;;;;;28.48;32.24;99382.03;8473792;27;20524;-74
2022/06/12 16:18:29;;;;;;;3.25;1.10;;;;;;;28.84;31.59;99388.56;8525548;27;20096;-74
2022/06/12 16:22:31;;;;;;;2.08;1.58;;;;;;;29.25;31.52;99381.84;8479804;27;20051;-74
2022/06/12 16:26:32;;;;;;;4.43;1.60;;;;;;;29.30;30.40;99381.34;8525465;27;20146;-74
2022/06/12 16:30:36;;;;;;;2.70;1.20;;;;;;;29.59;30.32;99365.66;8523602;27;20146;-74
2022/06/12 16:34:37;;;;;;;2.22;1.30;;;;;;;29.77;29.38;99362.47;8481221;27;20043;-75
2022/06/12 16:38:38;;;;;;;1.60;1.38;;;;;;;30.23;29.32;99364.22;8521389;27;20043;-75
2022/06/12 16:42:39;;;;;;;2.30;1.30;;;;;;;31.17;27.81;99359.41;8518255;27;20057;-75
2022/06/12 16:46:43;;;;;;;2.53;1.30;;;;;;;32.48;26.26;99360.19;8512953;27;20054;-74
2022/06/12 16:50:44;;;;;;;3.40;1.20;;;;;;;33.23;25.80;99358.41;8518662;27;20043;-75
2022/06/12 16:54:51;;;;;;;2.92;1.30;;;;;;;32.92;26.09;99356.28;8485750;27;20039;-75
2022/06/12 16:58:53;;;;;;;5.45;1.40;;;;;;;31.09;27.54;99352.47;8532266;27;20138;-75
2022/06/12 17:02:56;;;;;;;1.60;1.40;;;;;;;30.02;28.95;99354.38;8437464;27;20447;-75
2022/06/12 17:06:57;;;;;;;2.03;1.40;;;;;;;29.42;30.23;99355.69;8526949;27;20055;-75
2022/06/12 17:10:58;;;;;;;1.65;1.27;;;;;;;28.94;31.79;99343.13;8517940;27;20043;-74
2022/06/12 17:14:59;;;;;;;3.80;1.60;;;;;;;28.57;32.29;99335.03;8470955;27;20138;-75
2022/06/12 17:23:25;;;;;;;5.43;1.50;;;;;;;27.87;33.86;99326.63;8527845;27;20527;-75
2022/06/12 17:27:27;;;;;;;4.70;1.50;;;;;;;27.78;33.70;99326.38;8507287;27;20046;-75
2022/06/12 17:31:28;;;;;;;4.28;1.77;;;;;;;27.57;34.38;99335.81;8514766;27;20453;-75
2022/06/12 17:35:30;;;;;;;3.38;1.50;;;;;;;27.40;35.10;99331.25;8485875;27;20038;-74
2022/06/12 17:39:34;;;;;;;3.35;1.63;;;;;;;27.25;35.76;99325.09;8506920;27;20071;-74
2022/06/12 17:43:37;;;;;;;4.30;1.50;;;;;;;27.03;36.86;99326.53;8520744;27;20095;-74
2022/06/12 17:47:38;;;;;;;3.45;1.42;;;;;;;26.85;37.96;99317.63;8500026;27;20070;-75
2022/06/12 17:51:39;;;;;;;3.55;1.70;;;;;;;26.63;39.25;99316.28;8527992;27;20138;-74
2022/06/12 17:55:46;;;;;;;4.32;1.63;;;;;;;26.40;40.56;99309.38;8525700;27;20043;-73
2022/06/12 17:59:47;;;;;;;5.03;1.63;;;;;;;26.18;41.67;99307.16;8510086;27;20130;-74
2022/06/12 18:03:48;;;;;;;3.72;1.75;;;;;;;25.93;43.06;99301.81;8510146;27;20043;-74
2022/06/12 18:07:50;;;;;;;3.10;1.63;;;;;;;25.65;43.94;99292.53;8524314;27;20347;-73
2022/06/12 18:11:50;;;;;;;5.57;1.70;;;;;;;25.46;44.56;99298.56;8493330;27;20078;-74
2022/06/12 18:20:12;;;;;;;6.85;1.88;;;;;;;25.02;46.24;99298.34;8488965;27;20053;-74
2022/06/12 18:24:19;;;;;;;5.57;2.05;;;;;;;24.80;47.15;99306.69;8529216;27;20075;-73
2022/06/12 18:28:19;;;;;;;7.57;2.30;;;;;;;24.66;47.87;99303.97;8492793;27;20047;-74
2022/06/12 18:32:20;;;;;;;3.63;2.75;;;;;;;24.53;48.14;99289.03;8497896;27;20462;-75
2022/06/12 18:36:25;;;;;;;9.05;2.80;;;;;;;24.41;49.02;99286.66;8512393;27;20042;-74
2022/06/12 18:40:27;;;;;;;4.57;2.70;;;;;;;24.28;49.10;99279.97;8515601;27;20046;-74
2022/06/12 18:44:28;;;;;;;6.57;2.83;;;;;;;24.19;49.04;99285.09;8535821;27;20042;-74
2022/06/12 18:48:30;;;;;;;5.75;2.30;;;;;;;24.11;49.71;99278.75;8516487;27;20046;-74
2022/06/12 18:52:31;;;;;;;6.47;2.20;;;;;;;23.98;49.70;99286.66;8521129;27;20058;-74
2022/06/12 18:56:33;;;;;;;4.93;2.10;;;;;;;23.91;49.92;99286.66;8533768;27;20514;-75
2022/06/12 19:00:36;;;;;;;3.80;2.00;;;;;;;23.83;50.28;99290.59;8436550;27;20047;-74
2022/06/12 19:04:38;;;;;;;7.95;2.25;;;;;;;23.78;50.58;99299.25;8512549;27;20503;-74
2022/06/12 19:08:39;;;;;;;4.50;2.42;;;;;;;23.70;50.75;99292.13;8498630;27;20051;-74
2022/06/12 19:12:40;;;;;;;5.50;2.80;;;;;;;23.56;51.44;99303.94;8505328;27;20055;-74
2022/06/12 19:16:43;;;;;;;5.70;3.08;;;;;;;23.42;51.89;99303.09;8451041;27;20077;-74
2022/06/12 19:20:44;;;;;;;4.95;3.17;;;;;;;23.19;51.72;99328.19;8533620;27;20100;-74
2022/06/12 19:24:45;;;;;;;6.78;2.20;;;;;;;22.95;51.54;99335.16;8461509;27;20113;-74
2022/06/12 19:28:46;;;;;;;3.22;2.00;;;;;;;22.93;50.39;99337.53;8523016;27;20045;-74
2022/06/12 19:32:47;;;;;;;3.58;1.83;;;;;;;22.90;50.56;99338.28;8529447;27;20043;-74
2022/06/12 19:36:48;;;;;;;4.85;2.13;;;;;;;22.76;50.83;99332.69;8529943;27;20043;-74
2022/06/12 19:40:49;;;;;;;9.15;3.38;;;;;;;22.62;51.29;99332.59;8527512;27;20058;-74
2022/06/12 19:44:54;;;;;;;12.27;4.22;;;;;;;22.32;52.49;99325.28;8506811;27;20389;-74
2022/06/12 19:48:54;;;;;;;13.18;4.18;;;;;;;22.17;52.73;99312.59;8524867;27;21150;-74